Impacts TAF Board INFO
FOR SITUATIONAL AWARENESS. NOT TO BE USED FOR FLIGHT PLANNING PURPOSES.
IDs:

KLAS - Las Vegas/McCarran I, NV, US

Issued at 0538 UTC 17 Dec 2017
Updated at 0600 UTC 17 Dec 2017
Potential Impact None Slight Moderate High
Time0556Z 17/06Z 17/07Z 17/08Z 17/09Z 17/10Z 17/11Z 17/12Z 17/13Z 17/14Z 17/15Z 17/16Z 17/17Z 17/18Z>>
Type OBS PRVL PRVL PRVL PRVL PRVL PRVL PRVL PRVL PRVL PRVL PRVL PRVL PRVL
VIS 10 >6 >6 >6 >6 >6 >6 >6 >6 >6 >6 >6 >6 >6
CIG 120 120 120 120 120 120 120 120 120 120 120 120 120 120
Cover BKN BKN BKN BKN BKN BKN BKN BKN BKN BKN BKN BKN BKN BKN
FltCat VFR VFR VFR VFR VFR VFR VFR VFR VFR VFR VFR VFR VFR VFR
WX -- -- -- -- -- -- -- -- -- -- -- -- -- --
WDir 360 350 350 350 350 350 350 350 350 350 350 350 350 350
WSpd 13 14 14 14 14 14 14 14 14 14 14 14 14 14
WGst 21 24 24 24 24 24 24 24 24 24 24 24 24 24

Raw TAF
KLAS 170538Z 1706/1812 35014G24KT P6SM SCT090 BKN120
  FM172100 02010KT P6SM SCT120 SCT250
  FM180300 32007KT P6SM SKC


Raw METAR
KLAS 170556Z 36013G21KT 10SM BKN120 12/M03 A2989 RMK AO2 SLP117 T01221033 10156 20122 52029
KLAS 170456Z 35014G26KT 10SM BKN120 13/M02 A2986 RMK AO2 PK WND 36028/0423 SLP107 T01281022
KLAS 170356Z 03016G26KT 10SM BKN140 14/M02 A2983 RMK AO2 PK WND 02026/0351 SLP097 T01391022
KLAS 170256Z 36011KT 10SM BKN140 14/M03 A2980 RMK AO2 SLP086 T01441033 53019

METAR Board
Radar Display
Forecast Discussion

FOR SITUATIONAL AWARENESS. NOT TO BE USED FOR FLIGHT PLANNING PURPOSES.